KBHM/BHM METAR and TAF weather

Enter ICAO airport designator
Station Type Date Time Source
KBHM METAR 2018/10/19 15:02 UTC NOAA

KBHM 191502Z VRB05KT 10SM SCT013 19/13 A3030 RMK AO2 T01940133


Station Type Date Time Source
KBHM Decoded METAR 2018/10/19 15:02 UTC NOAA

BIRMINGHAM INT'L AIRPORT, AL, United States (KBHM) 33-34N 086-45W 197M
Oct 19, 2018 - 11:02 AM EDT / 2018.10.19 1502 UTC
Wind: Variable at 6 MPH (5 KT):0
Visibility: 10 mile(s):0
Sky conditions: partly cloudy
Temperature: 66.9 F (19.4 C)
Dew Point: 55.9 F (13.3 C)
Relative Humidity: 67%
Pressure (altimeter): 30.3 in. Hg (1026 hPa)
ob: KBHM 191502Z VRB05KT 10SM SCT013 19/13 A3030 RMK AO2 T01940133
cycle: 15

Station Type Date Time Source
KBHM TAF 2018/10/19 12:57 UTC NOAA

TAF KBHM 191154Z 1912/2012 00000KT P6SM BKN250
TEMPO 1912/1915 BKN010 OVC250
FM191500 13006KT P6SM SCT025 BKN200
FM191800 20007KT P6SM SCT070 BKN150
FM200000 00000KT P6SM BKN100
FM200900 29003KT P6SM VCSH OVC050


Example: see airport list